Time;durP1;ratioP1;P1;durP2;ratioP2;P2;SDS_P1;SDS_P2;PMS_P1;PMS_P2;Temp;Humidity;BMP_temperature;BMP_pressure;BME280_temperature;BME280_humidity;BME280_pressure;Samples;Min_cycle;Max_cycle;Signal;HPM_P1;HPM_P2
2024/01/08 00:01:54;;;;;;;4.83;3.27;;;;;;;;;;5055378;28;20542;-85
2024/01/08 00:04:59;;;;;;;5.57;3.73;;;;;;;;;;5079446;28;21189;-85
2024/01/08 00:08:03;;;;;;;5.83;3.70;;;;;;;;;;5043882;28;20550;-85
2024/01/08 00:11:09;;;;;;;5.60;4.00;;;;;;;;;;5078200;28;20542;-85
2024/01/08 00:14:13;;;;;;;5.13;3.70;;;;;;;;;;5055502;28;21196;-85
2024/01/08 00:17:17;;;;;;;5.33;3.57;;;;;;;;;;5066996;28;20535;-86
2024/01/08 00:20:22;;;;;;;4.93;3.47;;;;;;;;;;5061418;28;20880;-86
2024/01/08 00:23:39;;;;;;;5.60;3.93;;;;;;;;;;5079364;28;20534;-85
2024/01/08 00:26:43;;;;;;;4.73;2.73;;;;;;;;;;5055396;28;20593;-85
2024/01/08 00:29:48;;;;;;;3.17;2.83;;;;;;;;;;5054791;28;20534;-86
2024/01/08 00:32:52;;;;;;;4.57;3.13;;;;;;;;;;5079027;28;20542;-85
2024/01/08 00:35:56;;;;;;;3.30;2.77;;;;;;;;;;5054351;28;21074;-86
2024/01/08 00:39:01;;;;;;;4.60;3.77;;;;;;;;;;5054555;28;20542;-85
2024/01/08 00:42:06;;;;;;;5.03;3.50;;;;;;;;;;5078549;28;20547;-86
2024/01/08 00:45:10;;;;;;;5.73;3.27;;;;;;;;;;5065681;28;20621;-86
2024/01/08 00:48:14;;;;;;;5.87;3.40;;;;;;;;;;5065325;28;20550;-86
2024/01/08 00:51:18;;;;;;;4.77;3.00;;;;;;;;;;5065571;28;21069;-86
2024/01/08 00:54:22;;;;;;;4.10;2.90;;;;;;;;;;5077724;28;20645;-86
2024/01/08 00:57:26;;;;;;;5.10;3.33;;;;;;;;;;5066197;28;20610;-85
2024/01/08 01:00:31;;;;;;;4.43;3.07;;;;;;;;;;5065664;28;20546;-85
2024/01/08 01:03:34;;;;;;;4.33;3.37;;;;;;;;;;5053858;28;20550;-85
2024/01/08 01:06:39;;;;;;;3.73;3.10;;;;;;;;;;5065923;28;20534;-85
2024/01/08 01:09:43;;;;;;;3.10;2.80;;;;;;;;;;5077862;28;20542;-86
2024/01/08 01:12:47;;;;;;;3.67;3.17;;;;;;;;;;5065654;28;20535;-86
2024/01/08 01:15:53;;;;;;;4.67;3.00;;;;;;;;;;5065739;28;20534;-86
2024/01/08 01:18:57;;;;;;;3.63;2.80;;;;;;;;;;5053636;28;20542;-85
2024/01/08 01:22:01;;;;;;;5.67;2.87;;;;;;;;;;5065202;28;20530;-85
2024/01/08 01:25:05;;;;;;;3.93;3.07;;;;;;;;;;5065639;28;20621;-85
2024/01/08 01:28:11;;;;;;;3.33;2.70;;;;;;;;;;5054346;28;20538;-85
2024/01/08 01:31:15;;;;;;;5.07;3.43;;;;;;;;;;5065833;28;20534;-86
2024/01/08 01:34:19;;;;;;;3.53;2.80;;;;;;;;;;5053692;28;20621;-85
2024/01/08 01:37:24;;;;;;;3.63;2.70;;;;;;;;;;5053248;28;20590;-85
2024/01/08 01:40:28;;;;;;;3.00;2.70;;;;;;;;;;5052769;28;21077;-85
2024/01/08 01:43:32;;;;;;;3.57;2.90;;;;;;;;;;5053319;28;20546;-85
2024/01/08 01:46:43;;;;;;;3.87;2.97;;;;;;;;;;5077669;28;20538;-85
2024/01/08 01:49:47;;;;;;;3.57;3.00;;;;;;;;;;5065413;28;21063;-85
2024/01/08 01:52:51;;;;;;;4.53;3.10;;;;;;;;;;5064925;28;20668;-85
2024/01/08 01:55:55;;;;;;;4.17;2.80;;;;;;;;;;5052490;28;20900;-85
2024/01/08 01:59:03;;;;;;;3.23;2.83;;;;;;;;;;5077296;28;20526;-85
2024/01/08 02:02:07;;;;;;;3.97;2.30;;;;;;;;;;5076879;28;20555;-86
2024/01/08 02:05:12;;;;;;;6.23;2.87;;;;;;;;;;5055194;28;20625;-85
2024/01/08 02:08:16;;;;;;;3.20;2.90;;;;;;;;;;5077550;28;20864;-85
2024/01/08 02:11:21;;;;;;;4.27;3.13;;;;;;;;;;5063990;28;20554;-85
2024/01/08 02:14:25;;;;;;;3.07;2.60;;;;;;;;;;5052457;28;20613;-85
2024/01/08 02:17:30;;;;;;;3.60;2.73;;;;;;;;;;5052558;28;20602;-86
2024/01/08 02:20:33;;;;;;;3.60;2.93;;;;;;;;;;5064146;28;20534;-85
2024/01/08 02:23:38;;;;;;;3.03;2.73;;;;;;;;;;5063263;28;20534;-85
2024/01/08 02:26:42;;;;;;;4.27;3.00;;;;;;;;;;5064185;28;20542;-85
2024/01/08 02:29:46;;;;;;;3.83;2.53;;;;;;;;;;5052702;28;20538;-85
2024/01/08 02:32:50;;;;;;;3.83;3.00;;;;;;;;;;5052695;28;20546;-85
2024/01/08 02:35:57;;;;;;;2.90;2.60;;;;;;;;;;5041749;28;20542;-86
2024/01/08 02:39:00;;;;;;;3.20;2.53;;;;;;;;;;5041921;28;20527;-85
2024/01/08 02:42:05;;;;;;;3.80;2.80;;;;;;;;;;5076315;28;20546;-85
2024/01/08 02:45:09;;;;;;;4.80;2.93;;;;;;;;;;5052057;28;20605;-85
2024/01/08 02:48:13;;;;;;;4.20;3.10;;;;;;;;;;5052229;28;20545;-85
2024/01/08 02:51:17;;;;;;;4.63;3.20;;;;;;;;;;5078987;28;21068;-85
2024/01/08 02:54:21;;;;;;;3.23;2.60;;;;;;;;;;5070593;28;20641;-85
2024/01/08 02:57:27;;;;;;;6.50;3.10;;;;;;;;;;5071149;28;20586;-85
2024/01/08 03:00:31;;;;;;;3.33;2.57;;;;;;;;;;5083641;28;20541;-85
2024/01/08 03:03:35;;;;;;;5.70;2.97;;;;;;;;;;5058949;28;20550;-85
2024/01/08 03:06:40;;;;;;;3.20;2.90;;;;;;;;;;5071465;28;20534;-85
2024/01/08 03:09:44;;;;;;;3.40;2.70;;;;;;;;;;5071451;28;20538;-85
2024/01/08 03:12:48;;;;;;;3.87;2.80;;;;;;;;;;5070959;28;20558;-85
2024/01/08 03:15:52;;;;;;;4.17;3.10;;;;;;;;;;5071757;28;21074;-85
2024/01/08 03:18:57;;;;;;;4.00;2.97;;;;;;;;;;5059792;28;20601;-85
2024/01/08 03:22:04;;;;;;;3.50;2.87;;;;;;;;;;5071517;28;20538;-85
2024/01/08 03:25:09;;;;;;;3.87;3.00;;;;;;;;;;5071113;28;20620;-85
2024/01/08 03:28:13;;;;;;;3.43;2.90;;;;;;;;;;5070723;28;20896;-85
2024/01/08 03:31:18;;;;;;;3.60;2.90;;;;;;;;;;5082859;28;20534;-85
2024/01/08 03:34:22;;;;;;;4.87;3.27;;;;;;;;;;5070868;28;20628;-85
2024/01/08 03:37:26;;;;;;;2.97;2.37;;;;;;;;;;5070111;28;21133;-85
2024/01/08 03:40:30;;;;;;;4.37;2.80;;;;;;;;;;5083845;28;20541;-85
2024/01/08 03:43:34;;;;;;;3.43;2.90;;;;;;;;;;5070817;28;20546;-85
2024/01/08 03:46:39;;;;;;;4.23;2.77;;;;;;;;;;5070443;28;20539;-86
2024/01/08 03:49:42;;;;;;;3.07;2.60;;;;;;;;;;5059450;28;20538;-85
2024/01/08 03:52:46;;;;;;;3.37;2.90;;;;;;;;;;5083376;28;20534;-85
2024/01/08 03:55:51;;;;;;;4.57;2.90;;;;;;;;;;5070546;28;20601;-85
2024/01/08 03:58:55;;;;;;;4.33;3.00;;;;;;;;;;5070569;28;20593;-85
2024/01/08 04:01:59;;;;;;;3.97;3.07;;;;;;;;;;5070661;28;20542;-85
2024/01/08 04:05:04;;;;;;;3.90;3.00;;;;;;;;;;5055350;28;20613;-85
2024/01/08 04:08:08;;;;;;;3.77;3.13;;;;;;;;;;5065728;28;20549;-85
2024/01/08 04:15:57;;;;;;;5.40;2.97;;;;;;;;;;5084731;28;20534;-85
2024/01/08 04:19:01;;;;;;;3.87;3.00;;;;;;;;;;5066521;28;20594;-85
2024/01/08 04:22:05;;;;;;;3.47;2.70;;;;;;;;;;5067279;28;20530;-85
2024/01/08 04:25:10;;;;;;;5.27;3.20;;;;;;;;;;5066924;28;20613;-85
2024/01/08 04:28:14;;;;;;;3.37;2.87;;;;;;;;;;5067177;28;20538;-85
2024/01/08 04:31:20;;;;;;;3.57;3.10;;;;;;;;;;5067002;28;20538;-86
2024/01/08 04:34:36;;;;;;;3.83;2.60;;;;;;;;;;5060658;22;20673;-86
2024/01/08 04:38:02;;;;;;;4.63;2.90;;;;;;;;;;5043661;28;20606;-85
2024/01/08 04:41:12;;;;;;;4.30;2.90;;;;;;;;;;5066845;28;20530;-86
2024/01/08 04:44:27;;;;;;;4.07;3.03;;;;;;;;;;5077813;28;20621;-85
2024/01/08 04:47:39;;;;;;;3.80;2.87;;;;;;;;;;5055162;28;20527;-85
2024/01/08 04:50:58;;;;;;;3.50;3.20;;;;;;;;;;5066863;28;20526;-85
2024/01/08 04:54:22;;;;;;;3.80;3.07;;;;;;;;;;5078716;28;20617;-85
2024/01/08 04:57:36;;;;;;;4.30;2.97;;;;;;;;;;5066220;28;20928;-86
2024/01/08 05:00:54;;;;;;;3.00;2.70;;;;;;;;;;5056033;28;20873;-85
2024/01/08 05:04:17;;;;;;;3.00;2.60;;;;;;;;;;5078714;28;20622;-85
2024/01/08 05:08:22;;;;;;;;;;;;;;;;;;;;;
2024/01/08 05:11:32;;;;;;;4.43;3.40;;;;;;;;;;5078457;28;20543;-85
2024/01/08 05:14:48;;;;;;;4.27;3.00;;;;;;;;;;5077134;28;20626;-86
2024/01/08 05:18:40;;;;;;;3.93;3.00;;;;;;;;;;5060532;28;20586;-86
2024/01/08 05:21:58;;;;;;;3.33;2.77;;;;;;;;;;5065099;28;20550;-85
2024/01/08 05:25:27;;;;;;;4.10;2.87;;;;;;;;;;5068716;28;20637;-86
2024/01/08 05:29:03;;;;;;;4.37;3.13;;;;;;;;;;5055111;28;20551;-86
2024/01/08 05:32:23;;;;;;;7.20;3.03;;;;;;;;;;5065545;28;20534;-85
2024/01/08 05:35:33;;;;;;;4.07;3.10;;;;;;;;;;5065751;28;20640;-85
2024/01/08 05:39:37;;;;;;;5.77;3.57;;;;;;;;;;5076870;28;20606;-85
2024/01/08 05:43:04;;;;;;;5.27;3.30;;;;;;;;;;5066227;28;20542;-85
2024/01/08 05:46:20;;;;;;;4.73;3.40;;;;;;;;;;5055395;28;20530;-85
2024/01/08 05:49:52;;;;;;;4.40;3.50;;;;;;;;;;5065451;28;20530;-86
2024/01/08 05:53:48;;;;;;;4.33;3.00;;;;;;;;;;5077077;28;21106;-85
2024/01/08 05:57:06;;;;;;;;;;;;;;;;;;;;;
2024/01/08 06:00:23;;;;;;;3.77;3.23;;;;;;;;;;5077503;28;21089;-85
2024/01/08 06:03:47;;;;;;;4.70;3.90;;;;;;;;;;5055718;28;20617;-85
2024/01/08 06:06:59;;;;;;;5.93;3.70;;;;;;;;;;5066908;28;20535;-85
2024/01/08 06:13:54;;;;;;;5.07;3.27;;;;;;;;;;5054307;28;20617;-86
2024/01/08 06:17:39;;;;;;;3.90;3.40;;;;;;;;;;5075988;28;20538;-85
2024/01/08 06:24:41;;;;;;;5.70;3.67;;;;;;;;;;5029862;28;20649;-86
2024/01/08 06:28:07;;;;;;;4.63;3.83;;;;;;;;;;5076663;28;20538;-86
2024/01/08 06:31:43;;;;;;;4.90;3.87;;;;;;;;;;5058592;28;20530;-85
2024/01/08 06:35:41;;;;;;;;;;;;;;;;;;;;;
2024/01/08 06:39:19;;;;;;;8.80;4.40;;;;;;;;;;5068675;28;20935;-86
2024/01/08 06:42:29;;;;;;;6.53;3.93;;;;;;;;;;5067201;28;20530;-86
2024/01/08 06:46:06;;;;;;;5.63;3.57;;;;;;;;;;5076087;28;20550;-85
2024/01/08 06:49:13;;;;;;;6.50;4.27;;;;;;;;;;5067362;28;20546;-85
2024/01/08 06:52:26;;;;;;;6.20;4.40;;;;;;;;;;5067732;28;20535;-86
2024/01/08 06:55:39;;;;;;;4.87;3.90;;;;;;;;;;5081784;28;20614;-85
2024/01/08 06:59:04;;;;;;;6.53;4.60;;;;;;;;;;5078885;28;20606;-85
2024/01/08 07:02:18;;;;;;;6.83;4.53;;;;;;;;;;5055507;28;20538;-85
2024/01/08 07:05:35;;;;;;;6.53;4.77;;;;;;;;;;5046360;28;20609;-85
2024/01/08 07:08:50;;;;;;;6.80;4.67;;;;;;;;;;5055828;28;20547;-85
2024/01/08 07:16:18;;;;;;;7.30;4.17;;;;;;;;;;5067039;28;20625;-86
2024/01/08 07:19:26;;;;;;;7.13;4.27;;;;;;;;;;5079410;28;20585;-85
2024/01/08 07:22:36;;;;;;;6.57;4.47;;;;;;;;;;5072387;28;20555;-85
2024/01/08 07:25:44;;;;;;;5.53;4.40;;;;;;;;;;5060052;28;21205;-85
2024/01/08 07:28:59;;;;;;;7.37;4.47;;;;;;;;;;5084023;28;20542;-86
2024/01/08 07:32:09;;;;;;;6.27;4.80;;;;;;;;;;5060597;28;20527;-85
2024/01/08 07:35:14;;;;;;;7.07;4.47;;;;;;;;;;5060141;28;20652;-85
2024/01/08 07:38:51;;;;;;;6.53;4.27;;;;;;;;;;5085758;28;20606;-85
2024/01/08 07:41:55;;;;;;;7.23;4.50;;;;;;;;;;5080528;28;20613;-85
2024/01/08 07:45:04;;;;;;;5.67;4.27;;;;;;;;;;5064191;28;20605;-85
2024/01/08 07:48:12;;;;;;;6.80;4.90;;;;;;;;;;5076215;28;20568;-85
2024/01/08 07:51:21;;;;;;;7.00;4.53;;;;;;;;;;5075107;28;20553;-85
2024/01/08 07:54:26;;;;;;;5.70;4.20;;;;;;;;;;5063449;28;20613;-85
2024/01/08 07:57:30;;;;;;;7.50;4.70;;;;;;;;;;5074930;28;20558;-85
2024/01/08 08:00:34;;;;;;;6.40;4.70;;;;;;;;;;5062995;28;20530;-85
2024/01/08 08:03:38;;;;;;;7.60;4.67;;;;;;;;;;5073705;28;20538;-86
2024/01/08 08:06:43;;;;;;;7.67;4.70;;;;;;;;;;5062422;28;20542;-85
2024/01/08 08:09:47;;;;;;;6.27;4.70;;;;;;;;;;5073941;28;20538;-85
2024/01/08 08:12:52;;;;;;;5.70;4.10;;;;;;;;;;5073940;28;21078;-85
2024/01/08 08:15:58;;;;;;;6.93;5.03;;;;;;;;;;5062356;28;20535;-85
2024/01/08 08:19:03;;;;;;;8.03;5.13;;;;;;;;;;5061656;28;20593;-85
2024/01/08 08:22:11;;;;;;;6.57;4.50;;;;;;;;;;5085633;28;20546;-85
2024/01/08 08:25:16;;;;;;;7.63;5.30;;;;;;;;;;5061289;28;20617;-85
2024/01/08 08:28:20;;;;;;;9.93;5.17;;;;;;;;;;5073283;28;20530;-85
2024/01/08 08:31:24;;;;;;;6.07;4.43;;;;;;;;;;5061531;28;20541;-85
2024/01/08 08:34:28;;;;;;;6.67;4.83;;;;;;;;;;5072250;28;20632;-85
2024/01/08 08:37:33;;;;;;;6.00;4.20;;;;;;;;;;5084852;28;21086;-85
2024/01/08 08:40:37;;;;;;;6.73;4.37;;;;;;;;;;5061219;28;20535;-85
2024/01/08 08:43:59;;;;;;;6.27;4.43;;;;;;;;;;5067908;22;21386;-86
2024/01/08 08:47:49;;;;;;;8.00;4.67;;;;;;;;;;4988412;28;20610;-85
2024/01/08 08:50:54;;;;;;;6.23;4.73;;;;;;;;;;4990075;28;20538;-85
2024/01/08 08:54:04;;;;;;;6.90;4.70;;;;;;;;;;5000275;28;20962;-85
2024/01/08 08:57:10;;;;;;;7.10;4.50;;;;;;;;;;5001933;28;20534;-85
2024/01/08 09:00:15;;;;;;;5.83;4.73;;;;;;;;;;5001028;28;20939;-87
2024/01/08 09:03:20;;;;;;;7.80;4.10;;;;;;;;;;5000835;28;20546;-87
2024/01/08 09:06:24;;;;;;;5.67;4.77;;;;;;;;;;5000629;28;20542;-86
2024/01/08 09:09:29;;;;;;;6.80;4.97;;;;;;;;;;4988482;28;20554;-86
2024/01/08 09:12:33;;;;;;;8.13;5.10;;;;;;;;;;4999623;28;20542;-87
2024/01/08 09:15:37;;;;;;;8.67;5.17;;;;;;;;;;4999396;28;20617;-87
2024/01/08 09:18:42;;;;;;;7.10;4.97;;;;;;;;;;4999295;28;20598;-87
2024/01/08 09:21:48;;;;;;;6.60;4.63;;;;;;;;;;4999023;28;20542;-87
2024/01/08 09:24:52;;;;;;;7.60;4.97;;;;;;;;;;4998193;28;20625;-87
2024/01/08 09:27:56;;;;;;;6.63;4.80;;;;;;;;;;4987261;28;20568;-87
2024/01/08 09:31:04;;;;;;;7.43;5.27;;;;;;;;;;5000815;28;20542;-87
2024/01/08 09:34:08;;;;;;;5.63;4.80;;;;;;;;;;5044744;28;20617;-87
2024/01/08 09:37:12;;;;;;;8.80;5.33;;;;;;;;;;4986523;28;20558;-87
2024/01/08 09:40:16;;;;;;;9.43;5.00;;;;;;;;;;4997316;28;20594;-87
2024/01/08 09:43:21;;;;;;;7.77;5.60;;;;;;;;;;4985781;28;20546;-87
2024/01/08 09:46:28;;;;;;;7.83;5.67;;;;;;;;;;4997527;28;20617;-87
2024/01/08 09:49:33;;;;;;;8.80;5.60;;;;;;;;;;4985634;28;20541;-87
2024/01/08 09:52:39;;;;;;;8.53;5.20;;;;;;;;;;4985347;28;20546;-87
2024/01/08 09:55:45;;;;;;;7.93;5.57;;;;;;;;;;4996566;28;20614;-87
2024/01/08 09:58:49;;;;;;;7.17;5.07;;;;;;;;;;4985161;28;20558;-87
2024/01/08 10:01:56;;;;;;;7.07;5.00;;;;;;;;;;4985009;28;20546;-87
2024/01/08 10:05:01;;;;;;;7.20;5.10;;;;;;;;;;4996753;28;20625;-87
2024/01/08 10:08:08;;;;;;;10.10;4.67;;;;;;;;;;4984587;28;20554;-87
2024/01/08 10:11:13;;;;;;;6.80;4.97;;;;;;;;;;4995755;28;20545;-87
2024/01/08 10:14:17;;;;;;;8.13;5.73;;;;;;;;;;4984289;28;20625;-88
2024/01/08 10:17:21;;;;;;;8.10;5.90;;;;;;;;;;4984118;28;20546;-88
2024/01/08 10:20:26;;;;;;;9.57;5.87;;;;;;;;;;4995843;28;20601;-88
2024/01/08 10:23:30;;;;;;;9.17;5.87;;;;;;;;;;4984679;28;21081;-87
2024/01/08 10:26:35;;;;;;;9.00;6.17;;;;;;;;;;4994521;28;20546;-87
2024/01/08 10:29:40;;;;;;;8.93;6.10;;;;;;;;;;4982881;28;20550;-86
2024/01/08 10:32:44;;;;;;;8.27;6.00;;;;;;;;;;4995127;28;20546;-86
2024/01/08 10:39:51;;;;;;;9.13;6.30;;;;;;;;;;4969366;28;21215;-86
2024/01/08 10:42:56;;;;;;;8.13;5.77;;;;;;;;;;4948170;29;20540;-86
2024/01/08 10:46:12;;;;;;;8.30;5.03;;;;;;;;;;4927744;29;20569;-86
2024/01/08 10:49:19;;;;;;;8.10;5.70;;;;;;;;;;4938703;29;20553;-86
2024/01/08 10:52:28;;;;;;;7.30;5.60;;;;;;;;;;4956227;29;20560;-87
2024/01/08 10:55:32;;;;;;;9.03;6.30;;;;;;;;;;4934813;29;20619;-86
2024/01/08 10:59:02;;;;;;;10.40;6.37;;;;;;;;;;4933603;29;20560;-86
2024/01/08 11:02:07;;;;;;;8.03;5.83;;;;;;;;;;4976615;28;20544;-85
2024/01/08 11:05:13;;;;;;;7.37;5.93;;;;;;;;;;4944604;28;21183;-85
2024/01/08 11:08:21;;;;;;;7.93;5.80;;;;;;;;;;4943489;29;20878;-84
2024/01/08 11:11:25;;;;;;;9.40;6.27;;;;;;;;;;4943352;29;20560;-87
2024/01/08 11:14:30;;;;;;;10.20;6.50;;;;;;;;;;4946286;29;20626;-86
2024/01/08 11:17:34;;;;;;;9.97;6.20;;;;;;;;;;4936217;29;20544;-85
2024/01/08 11:20:42;;;;;;;10.77;7.07;;;;;;;;;;4947971;29;20596;-85
2024/01/08 11:23:47;;;;;;;10.03;6.63;;;;;;;;;;4958518;29;20615;-85
2024/01/08 11:26:52;;;;;;;7.23;5.93;;;;;;;;;;4947412;29;20548;-83
2024/01/08 11:30:02;;;;;;;8.47;6.23;;;;;;;;;;4947097;29;20556;-85
2024/01/08 11:33:56;;;;;;;7.30;5.80;;;;;;;;;;4946435;29;20540;-85
2024/01/08 11:37:36;;;;;;;9.67;5.73;;;;;;;;;;4953278;29;20603;-84
2024/01/08 11:40:40;;;;;;;10.10;6.80;;;;;;;;;;4946288;29;20591;-85
2024/01/08 11:43:45;;;;;;;8.03;6.13;;;;;;;;;;4946351;29;20614;-84
2024/01/08 11:46:49;;;;;;;8.93;6.63;;;;;;;;;;4947214;29;20881;-88
2024/01/08 11:49:53;;;;;;;10.43;6.50;;;;;;;;;;4937443;29;20531;-85
2024/01/08 11:53:00;;;;;;;9.30;6.23;;;;;;;;;;4946264;28;21103;-85
2024/01/08 11:56:05;;;;;;;13.27;7.50;;;;;;;;;;4957516;29;20543;-85
2024/01/08 11:59:09;;;;;;;8.33;6.43;;;;;;;;;;4957068;29;21131;-85
2024/01/08 12:02:16;;;;;;;7.50;6.33;;;;;;;;;;4935081;29;20548;-86
2024/01/08 12:05:21;;;;;;;9.27;6.97;;;;;;;;;;4945650;29;20964;-85
2024/01/08 12:08:29;;;;;;;10.03;6.67;;;;;;;;;;4985045;28;20560;-85
2024/01/08 12:11:34;;;;;;;10.10;6.80;;;;;;;;;;4947227;28;20556;-85
2024/01/08 12:14:40;;;;;;;9.33;7.17;;;;;;;;;;4934649;29;20630;-85
2024/01/08 12:17:44;;;;;;;9.50;6.53;;;;;;;;;;4958174;29;20535;-85
2024/01/08 12:20:50;;;;;;;8.13;5.80;;;;;;;;;;4945708;29;21135;-85
2024/01/08 12:37:32;;;;;;;8.73;5.60;;;;;;;;;;5058465;28;20618;-87
2024/01/08 12:40:36;;;;;;;8.77;5.70;;;;;;;;;;5049761;28;21142;-85
2024/01/08 12:43:41;;;;;;;7.30;5.40;;;;;;;;;;5036794;28;20559;-86
2024/01/08 12:46:47;;;;;;;7.90;6.20;;;;;;;;;;5058397;28;20877;-85
2024/01/08 12:49:51;;;;;;;7.83;5.77;;;;;;;;;;5035180;28;20543;-85
2024/01/08 12:52:56;;;;;;;8.70;6.23;;;;;;;;;;5047139;28;21098;-86
2024/01/08 13:02:22;;;;;;;8.30;5.90;;;;;;;;;;5039301;28;20674;-87
2024/01/08 13:05:26;;;;;;;8.77;6.17;;;;;;;;;;5042041;28;20620;-86
2024/01/08 13:08:33;;;;;;;8.90;6.27;;;;;;;;;;5006787;28;20553;-86
2024/01/08 13:11:37;;;;;;;12.77;6.40;;;;;;;;;;5018640;28;20537;-86
2024/01/08 13:14:41;;;;;;;7.37;5.93;;;;;;;;;;5008033;28;20616;-86
2024/01/08 13:17:46;;;;;;;8.33;6.00;;;;;;;;;;5008351;28;20549;-86
2024/01/08 13:20:50;;;;;;;9.30;6.03;;;;;;;;;;5019981;28;20597;-86
2024/01/08 13:23:54;;;;;;;9.30;6.30;;;;;;;;;;5018912;28;20620;-86
2024/01/08 13:26:58;;;;;;;8.13;5.90;;;;;;;;;;5007836;28;20537;-86
2024/01/08 13:30:03;;;;;;;8.90;5.63;;;;;;;;;;5017997;28;20557;-86
2024/01/08 13:33:07;;;;;;;9.20;6.37;;;;;;;;;;5018406;28;20549;-86
2024/01/08 13:36:12;;;;;;;7.40;5.50;;;;;;;;;;5007437;28;20600;-86
2024/01/08 13:39:17;;;;;;;7.57;5.57;;;;;;;;;;5018343;28;21081;-86
2024/01/08 13:42:22;;;;;;;7.90;5.33;;;;;;;;;;4995908;28;20533;-86
2024/01/08 13:45:26;;;;;;;8.63;5.87;;;;;;;;;;5018953;28;20608;-85
2024/01/08 13:48:30;;;;;;;8.17;5.27;;;;;;;;;;5019998;28;20875;-86
2024/01/08 13:51:35;;;;;;;7.57;5.70;;;;;;;;;;5007430;28;21076;-86
2024/01/08 13:54:39;;;;;;;8.97;5.67;;;;;;;;;;5018169;28;20624;-85
2024/01/08 13:57:44;;;;;;;8.47;5.37;;;;;;;;;;5018405;28;20882;-85
2024/01/08 14:00:48;;;;;;;6.43;5.00;;;;;;;;;;5017915;28;21005;-85
2024/01/08 14:03:52;;;;;;;7.97;5.07;;;;;;;;;;5019082;28;20624;-85
2024/01/08 14:06:57;;;;;;;8.03;5.67;;;;;;;;;;5018087;28;20557;-85
2024/01/08 14:10:01;;;;;;;12.90;6.23;;;;;;;;;;5006995;28;20541;-86
2024/01/08 14:13:06;;;;;;;9.77;6.27;;;;;;;;;;5014288;28;20537;-86
2024/01/08 14:16:18;;;;;;;9.23;6.10;;;;;;;;;;5158657;23;21002;-86
2024/01/08 14:27:58;;;;;;;10.03;6.20;;;;;;;;;;5074709;28;20666;-85
2024/01/08 14:31:02;;;;;;;9.10;5.97;;;;;;;;;;5076042;28;20538;-85
2024/01/08 14:34:06;;;;;;;7.97;5.37;;;;;;;;;;5064989;28;20625;-85
2024/01/08 14:37:10;;;;;;;8.17;6.40;;;;;;;;;;5064861;28;20542;-85
2024/01/08 14:40:19;;;;;;;10.00;6.00;;;;;;;;;;5053228;28;20593;-84
2024/01/08 14:43:23;;;;;;;13.87;7.87;;;;;;;;;;5088027;28;20530;-85
2024/01/08 14:46:29;;;;;;;16.80;9.00;;;;;;;;;;5076523;28;20543;-85
2024/01/08 14:49:32;;;;;;;24.60;10.73;;;;;;;;;;5064633;28;20534;-84
2024/01/08 14:52:37;;;;;;;27.37;13.00;;;;;;;;;;5079503;28;20557;-87
2024/01/08 14:55:41;;;;;;;8.83;6.17;;;;;;;;;;5084692;28;20997;-85
2024/01/08 14:58:46;;;;;;;9.80;5.77;;;;;;;;;;5063762;28;20550;-84
2024/01/08 15:01:53;;;;;;;8.70;5.30;;;;;;;;;;5076909;28;20590;-85
2024/01/08 15:33:37;;;;;;;9.57;6.03;;;;;;;;;;1670860;23;21092;-83
2024/01/08 15:36:42;;;;;;;13.47;6.47;;;;;;;;;;5003778;28;20620;-85
2024/01/08 15:39:46;;;;;;;12.37;6.60;;;;;;;;;;5005820;28;20544;-85
2024/01/08 15:42:50;;;;;;;13.30;6.10;;;;;;;;;;5006632;28;20529;-84
2024/01/08 15:45:54;;;;;;;11.50;6.30;;;;;;;;;;5006235;28;21069;-85
2024/01/08 15:48:59;;;;;;;12.30;6.53;;;;;;;;;;4984440;28;20537;-85
2024/01/08 15:52:03;;;;;;;10.90;6.37;;;;;;;;;;5005019;28;20553;-85
2024/01/08 15:55:07;;;;;;;10.70;6.30;;;;;;;;;;4984648;28;21188;-84
2024/01/08 15:58:11;;;;;;;9.27;6.50;;;;;;;;;;5005043;28;21061;-85
2024/01/08 16:01:15;;;;;;;11.20;6.37;;;;;;;;;;4997903;28;20592;-85
2024/01/08 16:04:20;;;;;;;9.90;6.03;;;;;;;;;;4996947;28;20620;-84
2024/01/08 16:07:24;;;;;;;9.60;5.73;;;;;;;;;;5019955;28;20544;-85
2024/01/08 16:10:30;;;;;;;10.13;5.97;;;;;;;;;;4997386;28;20549;-85
2024/01/08 16:13:34;;;;;;;12.23;6.60;;;;;;;;;;4996818;28;20556;-85
2024/01/08 16:16:38;;;;;;;10.87;6.43;;;;;;;;;;5021412;28;20556;-84
2024/01/08 16:19:42;;;;;;;14.10;7.67;;;;;;;;;;5008086;28;20537;-84
2024/01/08 16:22:50;;;;;;;9.90;6.60;;;;;;;;;;5020542;28;20603;-85
2024/01/08 16:25:54;;;;;;;11.47;6.97;;;;;;;;;;4998058;28;20541;-84
2024/01/08 16:28:58;;;;;;;11.93;6.87;;;;;;;;;;4996344;28;20560;-85
2024/01/08 16:32:04;;;;;;;10.10;6.60;;;;;;;;;;5020254;28;20533;-85
2024/01/08 16:35:08;;;;;;;10.97;6.37;;;;;;;;;;4997531;28;20643;-85
2024/01/08 16:38:13;;;;;;;12.07;6.23;;;;;;;;;;5009076;28;20541;-84
2024/01/08 16:41:17;;;;;;;11.67;6.67;;;;;;;;;;5008826;28;20593;-84
2024/01/08 16:44:22;;;;;;;10.80;6.70;;;;;;;;;;5008549;28;20627;-85
2024/01/08 16:47:26;;;;;;;17.00;9.43;;;;;;;;;;5008843;28;20529;-85
2024/01/08 16:50:30;;;;;;;10.53;7.43;;;;;;;;;;5020534;28;20541;-85
2024/01/08 16:53:35;;;;;;;13.33;7.77;;;;;;;;;;5007725;28;20565;-85
2024/01/08 16:56:39;;;;;;;11.13;7.37;;;;;;;;;;5008662;28;20557;-85
2024/01/08 16:59:45;;;;;;;17.90;8.10;;;;;;;;;;4996843;28;21137;-85
2024/01/08 17:02:48;;;;;;;14.43;8.10;;;;;;;;;;5007546;28;20589;-85
2024/01/08 17:05:52;;;;;;;12.37;7.57;;;;;;;;;;5008523;28;20564;-84
2024/01/08 17:09:01;;;;;;;13.07;7.93;;;;;;;;;;5006039;28;20560;-84
2024/01/08 17:12:06;;;;;;;12.73;7.90;;;;;;;;;;5006826;28;20529;-85
2024/01/08 17:15:10;;;;;;;12.13;7.33;;;;;;;;;;4995316;28;20628;-85
2024/01/08 17:18:13;;;;;;;11.43;7.43;;;;;;;;;;5018897;28;20541;-85
2024/01/08 17:21:19;;;;;;;15.00;9.60;;;;;;;;;;5006368;28;20593;-84
2024/01/08 17:24:23;;;;;;;16.20;9.30;;;;;;;;;;4995411;28;20961;-85
2024/01/08 17:27:31;;;;;;;18.13;11.20;;;;;;;;;;5006552;28;21111;-85
2024/01/08 17:30:35;;;;;;;15.53;8.07;;;;;;;;;;5006754;28;20544;-84
2024/01/08 17:33:39;;;;;;;22.20;11.93;;;;;;;;;;5018848;28;20541;-84
2024/01/08 17:36:44;;;;;;;22.20;10.77;;;;;;;;;;5018371;28;20545;-85
2024/01/08 17:39:48;;;;;;;20.00;10.27;;;;;;;;;;4984229;28;20640;-83
2024/01/08 17:42:54;;;;;;;17.30;10.60;;;;;;;;;;5009250;28;20596;-84
2024/01/08 17:45:54;;;;;;;16.67;9.13;;;;;;;;;;5025212;23;20692;-84
2024/01/08 17:48:59;;;;;;;14.23;8.30;;;;;;;;;;4976176;28;20549;-85
2024/01/08 17:52:05;;;;;;;14.53;8.50;;;;;;;;;;4976012;28;20538;-84
2024/01/08 17:55:09;;;;;;;23.57;11.47;;;;;;;;;;4975643;28;20613;-84
2024/01/08 17:58:14;;;;;;;17.80;10.20;;;;;;;;;;4976996;28;20570;-85
2024/01/08 18:01:18;;;;;;;21.97;9.83;;;;;;;;;;4981510;28;20601;-85
2024/01/08 18:04:23;;;;;;;15.47;9.50;;;;;;;;;;4979890;28;20625;-85
2024/01/08 18:07:27;;;;;;;15.83;9.63;;;;;;;;;;4978188;28;20538;-85
2024/01/08 18:10:32;;;;;;;17.93;9.83;;;;;;;;;;4989749;28;21089;-84
2024/01/08 18:13:36;;;;;;;18.97;10.83;;;;;;;;;;4989914;28;20554;-85
2024/01/08 18:16:41;;;;;;;13.77;8.43;;;;;;;;;;4988404;28;20569;-85
2024/01/08 18:19:45;;;;;;;15.47;9.30;;;;;;;;;;4988830;28;20538;-86
2024/01/08 18:22:52;;;;;;;13.90;8.77;;;;;;;;;;5000083;28;21188;-85
2024/01/08 18:25:56;;;;;;;15.33;8.50;;;;;;;;;;4988588;28;21082;-85
2024/01/08 18:29:00;;;;;;;14.27;8.70;;;;;;;;;;4987461;28;20557;-85
2024/01/08 18:32:06;;;;;;;15.53;8.20;;;;;;;;;;4975617;28;20534;-85
2024/01/08 18:35:10;;;;;;;17.23;9.27;;;;;;;;;;4975427;28;20625;-85
2024/01/08 18:38:16;;;;;;;14.53;9.60;;;;;;;;;;4975633;28;20546;-85
2024/01/08 18:41:22;;;;;;;14.47;8.93;;;;;;;;;;4986216;28;20537;-85
2024/01/08 18:44:26;;;;;;;15.10;8.67;;;;;;;;;;4985226;28;20636;-85
2024/01/08 18:47:30;;;;;;;16.50;9.13;;;;;;;;;;4974760;28;20542;-85
2024/01/08 18:50:35;;;;;;;14.77;8.67;;;;;;;;;;4974662;28;21111;-85
2024/01/08 18:53:39;;;;;;;14.33;8.87;;;;;;;;;;4997801;28;20904;-85
2024/01/08 18:56:43;;;;;;;13.87;8.13;;;;;;;;;;4985294;28;20546;-85
2024/01/08 18:59:49;;;;;;;15.47;8.70;;;;;;;;;;4997331;28;20562;-85
2024/01/08 19:02:53;;;;;;;16.27;8.80;;;;;;;;;;4974496;28;20601;-85
2024/01/08 19:05:58;;;;;;;17.43;9.30;;;;;;;;;;4974398;28;20542;-85
2024/01/08 19:09:03;;;;;;;13.57;7.97;;;;;;;;;;4974592;28;20550;-85
2024/01/08 19:12:08;;;;;;;16.47;8.43;;;;;;;;;;4986253;28;20877;-85
2024/01/08 19:15:13;;;;;;;14.77;7.63;;;;;;;;;;4984615;28;20621;-85
2024/01/08 19:18:17;;;;;;;15.83;8.47;;;;;;;;;;4996623;28;20542;-85
2024/01/08 19:21:21;;;;;;;14.23;7.93;;;;;;;;;;4974392;28;20542;-85
2024/01/08 19:24:27;;;;;;;14.80;8.50;;;;;;;;;;4996731;28;20625;-85
2024/01/08 19:27:32;;;;;;;16.60;8.47;;;;;;;;;;4996269;28;20539;-84
2024/01/08 19:30:38;;;;;;;15.83;8.90;;;;;;;;;;4984543;28;20541;-85
2024/01/08 19:33:43;;;;;;;14.50;8.13;;;;;;;;;;4985818;28;20540;-85
2024/01/08 19:36:48;;;;;;;15.13;9.00;;;;;;;;;;4989583;28;20904;-85
2024/01/08 19:39:53;;;;;;;13.53;8.13;;;;;;;;;;4988946;28;20538;-84
2024/01/08 19:42:58;;;;;;;13.90;7.50;;;;;;;;;;5001039;28;20597;-83
2024/01/08 19:46:03;;;;;;;18.03;8.57;;;;;;;;;;4991631;28;20625;-85
2024/01/08 19:49:07;;;;;;;16.23;8.70;;;;;;;;;;4988758;28;20545;-85
2024/01/08 19:52:11;;;;;;;14.40;8.00;;;;;;;;;;5000204;28;20534;-84
2024/01/08 19:55:16;;;;;;;15.70;8.17;;;;;;;;;;4977324;28;20637;-85
2024/01/08 19:58:21;;;;;;;13.17;7.77;;;;;;;;;;4988694;28;20538;-85
2024/01/08 20:01:25;;;;;;;14.13;8.23;;;;;;;;;;4988804;28;20533;-85